createdAt,value
2023-01-22T00:00:49.043Z,11.30
2023-01-22T00:03:50.502Z,11.70
2023-01-22T00:06:51.928Z,10.87
2023-01-22T00:09:53.311Z,11.87
2023-01-22T00:12:54.701Z,12.10
2023-01-22T00:15:59.745Z,12.20
2023-01-22T00:19:01.171Z,10.90
2023-01-22T00:22:02.599Z,11.93
2023-01-22T00:25:05.309Z,12.07
2023-01-22T00:28:07.298Z,11.57
2023-01-22T00:31:10.942Z,11.83
2023-01-22T00:34:12.465Z,11.37
2023-01-22T00:37:13.847Z,11.70
2023-01-22T00:40:19.051Z,12.00
2023-01-22T00:43:20.640Z,12.10
2023-01-22T00:46:22.210Z,11.40
2023-01-22T00:49:23.636Z,11.63
2023-01-22T00:52:25.089Z,11.40
2023-01-22T00:55:26.492Z,12.60
2023-01-22T00:58:28.308Z,11.27
2023-01-22T01:01:29.761Z,12.60
2023-01-22T01:04:32.644Z,11.67
2023-01-22T01:07:34.100Z,11.77
2023-01-22T01:10:35.551Z,12.70
2023-01-22T01:13:38.839Z,10.90
2023-01-22T01:16:43.054Z,11.97
2023-01-22T01:19:45.096Z,11.93
2023-01-22T01:22:46.485Z,11.70
2023-01-22T01:25:47.893Z,11.83
2023-01-22T01:28:52.328Z,11.67
2023-01-22T01:31:54.639Z,11.77
2023-01-22T01:34:56.061Z,11.53
2023-01-22T01:37:57.481Z,11.60
2023-01-22T01:40:59.330Z,11.37
2023-01-22T01:44:09.608Z,11.30
2023-01-22T01:47:31.932Z,12.20
2023-01-22T01:50:33.570Z,11.73
2023-01-22T01:53:36.136Z,12.23
2023-01-22T01:56:43.689Z,11.90
2023-01-22T01:59:47.491Z,11.83
2023-01-22T02:02:49.282Z,12.13
2023-01-22T02:05:50.688Z,11.53
2023-01-22T02:08:53.680Z,12.53
2023-01-22T02:11:55.153Z,11.73
2023-01-22T02:14:57.981Z,12.50
2023-01-22T02:18:04.082Z,12.07
2023-01-22T02:21:45.704Z,11.50
2023-01-22T02:24:47.423Z,11.40
2023-01-22T02:27:48.849Z,11.23
2023-01-22T02:30:50.791Z,12.10
2023-01-22T02:33:52.369Z,11.27
2023-01-22T02:36:55.411Z,10.97
2023-01-22T02:39:56.946Z,11.37
2023-01-22T02:42:58.453Z,11.87
2023-01-22T02:46:00.630Z,11.17
2023-01-22T02:49:02.638Z,11.30
2023-01-22T02:52:06.803Z,10.87
2023-01-22T02:55:09.599Z,10.87
2023-01-22T02:58:14.555Z,10.87
2023-01-22T03:01:23.088Z,11.60
2023-01-22T03:04:27.207Z,10.60
2023-01-22T03:07:41.903Z,11.43
2023-01-22T03:10:44.265Z,10.40
2023-01-22T03:14:04.458Z,10.43
2023-01-22T03:17:25.916Z,10.73
2023-01-22T03:20:46.569Z,11.23
2023-01-22T03:23:50.991Z,11.37
2023-01-22T03:26:52.776Z,10.70
2023-01-22T03:29:54.233Z,10.70
2023-01-22T03:32:55.774Z,9.07
2023-01-22T03:36:06.220Z,10.37
2023-01-22T03:39:09.438Z,9.70
2023-01-22T03:42:10.864Z,9.87
2023-01-22T03:45:12.339Z,10.53
2023-01-22T03:48:14.094Z,10.00
2023-01-22T03:51:17.174Z,9.27
2023-01-22T03:54:18.952Z,9.80
2023-01-22T03:57:20.602Z,9.33
2023-01-22T04:00:22.071Z,9.10
2023-01-22T04:03:27.068Z,8.80
2023-01-22T04:06:30.402Z,9.03
2023-01-22T04:09:32.999Z,8.60
2023-01-22T04:12:34.415Z,8.40
2023-01-22T04:15:35.964Z,8.47
2023-01-22T04:18:46.630Z,8.83
2023-01-22T04:22:14.005Z,8.03
2023-01-22T04:25:18.872Z,7.83
2023-01-22T04:28:20.578Z,7.93
2023-01-22T04:31:25.767Z,8.80
2023-01-22T04:34:41.130Z,8.60
2023-01-22T04:37:55.197Z,7.87
2023-01-22T04:40:57.473Z,7.53
2023-01-22T04:43:58.931Z,8.07
2023-01-22T04:47:01.491Z,7.93
2023-01-22T04:50:03.046Z,7.80
2023-01-22T04:53:05.019Z,8.10
2023-01-22T04:56:06.612Z,7.60
2023-01-22T04:59:08.551Z,7.67
2023-01-22T05:02:10.255Z,7.60
2023-01-22T05:05:11.844Z,7.87
2023-01-22T05:08:13.405Z,7.40
2023-01-22T05:11:14.972Z,7.50
2023-01-22T05:14:24.881Z,7.07
2023-01-22T05:17:26.278Z,7.53
2023-01-22T05:20:27.855Z,7.33
2023-01-22T05:23:29.573Z,7.53
2023-01-22T05:26:31.266Z,7.60
2023-01-22T05:29:37.808Z,7.50
2023-01-22T05:32:58.769Z,6.97
2023-01-22T05:36:02.712Z,6.87
2023-01-22T05:39:04.390Z,7.40
2023-01-22T05:42:06.793Z,6.77
2023-01-22T05:45:10.098Z,7.50
2023-01-22T05:48:19.129Z,7.13
2023-01-22T05:51:31.366Z,6.97
2023-01-22T05:54:33.607Z,6.90
2023-01-22T05:57:36.928Z,6.57
2023-01-22T06:00:38.480Z,6.53
2023-01-22T06:03:44.236Z,5.93
2023-01-22T06:06:47.493Z,6.17
2023-01-22T06:09:49.192Z,6.43
2023-01-22T06:12:51.782Z,6.67
2023-01-22T06:15:54.071Z,6.50
2023-01-22T06:19:24.264Z,6.27
2023-01-22T06:22:27.982Z,6.50
2023-01-22T06:25:32.175Z,6.40
2023-01-22T06:28:43.800Z,6.13
2023-01-22T06:31:46.413Z,6.23
2023-01-22T06:34:51.858Z,5.83
2023-01-22T06:37:54.312Z,5.40
2023-01-22T06:40:59.473Z,5.90
2023-01-22T06:44:01.274Z,5.63
2023-01-22T06:47:02.855Z,5.63
2023-01-22T06:50:05.822Z,5.77
2023-01-22T06:53:07.321Z,5.90
2023-01-22T06:56:08.983Z,6.00
2023-01-22T06:59:10.629Z,5.63
2023-01-22T07:02:17.519Z,5.80
2023-01-22T07:05:20.013Z,5.40
2023-01-22T07:08:21.402Z,5.10
2023-01-22T07:11:23.249Z,5.20
2023-01-22T07:14:36.520Z,5.17
2023-01-22T07:17:38.718Z,5.30
2023-01-22T07:20:42.199Z,5.13
2023-01-22T07:23:43.588Z,5.00
2023-01-22T07:26:46.147Z,5.20
2023-01-22T07:29:49.926Z,5.30
2023-01-22T07:32:51.384Z,5.03
2023-01-22T07:35:56.550Z,5.73
2023-01-22T07:38:58.089Z,5.13
2023-01-22T07:42:01.112Z,5.27
2023-01-22T07:45:05.534Z,4.90
2023-01-22T07:48:10.568Z,4.97
2023-01-22T07:51:12.622Z,5.03
2023-01-22T07:54:14.090Z,4.93
2023-01-22T07:57:16.611Z,5.03
2023-01-22T08:00:18.586Z,5.20
2023-01-22T08:03:20.160Z,5.20
2023-01-22T08:06:21.665Z,5.43
2023-01-22T08:09:25.528Z,5.30
2023-01-22T08:12:26.939Z,5.30
2023-01-22T08:15:28.455Z,6.17
2023-01-22T08:18:30.139Z,6.23
2023-01-22T08:21:32.831Z,5.57
2023-01-22T08:24:34.533Z,6.53
2023-01-22T08:27:35.989Z,6.00
2023-01-22T08:30:45.445Z,5.40
2023-01-22T08:33:47.765Z,5.57
2023-01-22T08:36:49.191Z,6.00
2023-01-22T08:39:50.584Z,6.20
2023-01-22T08:42:53.019Z,6.20
2023-01-22T08:45:54.482Z,5.73
2023-01-22T08:48:56.010Z,5.83
2023-01-22T08:51:57.820Z,6.23
2023-01-22T08:54:59.222Z,6.10
2023-01-22T08:58:00.653Z,5.40
2023-01-22T09:01:02.297Z,5.83
2023-01-22T09:04:07.195Z,5.77
2023-01-22T09:07:08.952Z,5.73
2023-01-22T09:10:12.753Z,6.40
2023-01-22T09:13:15.206Z,5.43
2023-01-22T09:16:16.653Z,6.03
2023-01-22T09:19:18.185Z,5.97
2023-01-22T09:22:20.479Z,6.03
2023-01-22T09:25:21.978Z,6.10
2023-01-22T09:28:23.415Z,6.07
2023-01-22T09:31:24.825Z,6.47
2023-01-22T09:34:26.309Z,6.07
2023-01-22T09:37:27.765Z,6.23
2023-01-22T09:40:38.859Z,19.13
2023-01-22T09:43:51.970Z,7.73
2023-01-22T09:47:00.132Z,6.77
2023-01-22T09:50:13.905Z,6.60
2023-01-22T09:53:18.007Z,6.37
2023-01-22T09:56:22.106Z,6.30
2023-01-22T09:59:32.223Z,6.30
2023-01-22T10:02:42.398Z,6.10
2023-01-22T10:05:48.908Z,6.07
2023-01-22T10:09:04.395Z,6.27
2023-01-22T10:12:12.744Z,6.00
2023-01-22T10:15:19.801Z,6.90
2023-01-22T10:18:37.487Z,6.60
2023-01-22T10:21:46.026Z,6.60
2023-01-22T10:24:47.434Z,6.27
2023-01-22T10:27:57.943Z,6.90
2023-01-22T10:30:59.553Z,6.83
2023-01-22T10:34:03.759Z,6.50
2023-01-22T10:37:15.374Z,6.67
2023-01-22T10:40:37.910Z,6.53
2023-01-22T10:43:39.485Z,6.37
2023-01-22T10:46:40.962Z,6.33
2023-01-22T10:49:42.442Z,6.10
2023-01-22T10:52:48.641Z,6.27
2023-01-22T10:55:55.738Z,6.07
2023-01-22T10:58:59.050Z,6.10
2023-01-22T11:02:16.588Z,6.13
2023-01-22T11:05:23.893Z,6.40
2023-01-22T11:08:30.677Z,5.97
2023-01-22T11:11:40.952Z,5.90
2023-01-22T11:14:42.961Z,5.87
2023-01-22T11:17:50.186Z,5.40
2023-01-22T11:20:57.259Z,5.87
2023-01-22T11:24:02.347Z,5.23
2023-01-22T11:27:53.546Z,5.77
2023-01-22T11:31:08.326Z,5.07
2023-01-22T11:34:26.486Z,5.50
2023-01-22T11:38:04.807Z,5.80
2023-01-22T11:41:16.420Z,5.03
2023-01-22T11:44:49.696Z,5.37
2023-01-22T11:48:07.077Z,5.17
2023-01-22T11:51:21.572Z,5.90
2023-01-22T11:54:49.620Z,5.30
2023-01-22T11:58:12.075Z,5.27
2023-01-22T12:01:43.879Z,5.00
2023-01-22T12:05:07.354Z,5.10
2023-01-22T12:08:14.633Z,5.53
2023-01-22T12:11:36.265Z,5.20
2023-01-22T12:15:04.562Z,4.97
2023-01-22T12:18:30.815Z,4.67
2023-01-22T12:21:42.710Z,5.73
2023-01-22T12:24:58.919Z,5.03
2023-01-22T12:28:09.860Z,5.20
2023-01-22T12:31:19.928Z,4.73
2023-01-22T12:34:36.795Z,5.00
2023-01-22T12:37:49.721Z,4.90
2023-01-22T12:41:36.136Z,6.80
2023-01-22T12:44:55.220Z,5.30
2023-01-22T12:48:09.906Z,5.87
2023-01-22T12:51:25.815Z,5.60
2023-01-22T12:54:29.426Z,6.17
2023-01-22T12:57:41.919Z,5.53
2023-01-22T13:00:43.357Z,6.50
2023-01-22T13:03:55.965Z,5.80
2023-01-22T13:07:20.073Z,7.00
2023-01-22T13:10:30.466Z,7.67
2023-01-22T13:13:33.998Z,7.03
2023-01-22T13:16:37.895Z,7.10
2023-01-22T13:19:49.549Z,7.20
2023-01-22T13:22:51.055Z,7.40
2023-01-22T13:25:54.748Z,6.37
2023-01-22T13:29:02.641Z,6.47
2023-01-22T13:32:18.886Z,6.70
2023-01-22T13:35:20.465Z,7.13
2023-01-22T13:38:30.029Z,6.30
2023-01-22T13:41:38.333Z,6.20
2023-01-22T13:44:44.768Z,6.23
2023-01-22T13:47:46.281Z,6.30
2023-01-22T13:50:57.857Z,5.70
2023-01-22T13:53:59.634Z,6.20
2023-01-22T13:57:01.266Z,6.07
2023-01-22T14:00:04.163Z,5.17
2023-01-22T14:03:24.295Z,6.17
2023-01-22T14:06:25.907Z,6.13
2023-01-22T14:09:33.021Z,6.40
2023-01-22T14:12:34.437Z,6.33
2023-01-22T14:15:37.330Z,6.40
2023-01-22T14:18:38.770Z,6.33
2023-01-22T14:21:41.687Z,6.13
2023-01-22T14:24:43.111Z,6.77
2023-01-22T14:27:47.362Z,5.73
2023-01-22T14:30:49.190Z,6.33
2023-01-22T14:33:50.647Z,6.13
2023-01-22T14:36:52.178Z,5.90
2023-01-22T14:39:53.559Z,6.23
2023-01-22T14:42:55.015Z,5.80
2023-01-22T14:45:56.553Z,5.70
2023-01-22T14:49:01.593Z,6.03
2023-01-22T14:52:03.160Z,6.07
2023-01-22T14:55:05.297Z,6.10
2023-01-22T14:58:06.774Z,6.20
2023-01-22T15:01:20.250Z,5.67
2023-01-22T15:04:21.724Z,5.77
2023-01-22T15:07:23.123Z,5.90
2023-01-22T15:10:24.662Z,5.70
2023-01-22T15:13:26.078Z,6.03
2023-01-22T15:16:27.521Z,5.40
2023-01-22T15:19:36.327Z,6.13
2023-01-22T15:22:42.028Z,5.67
2023-01-22T15:25:43.435Z,5.50
2023-01-22T15:28:45.016Z,5.87
2023-01-22T15:31:46.483Z,6.17
2023-01-22T15:34:47.920Z,6.20
2023-01-22T15:37:49.613Z,6.40
2023-01-22T15:41:02.169Z,6.60
2023-01-22T15:44:05.622Z,6.40
2023-01-22T15:47:07.843Z,6.57
2023-01-22T15:50:10.033Z,6.37
2023-01-22T15:53:11.413Z,6.40
2023-01-22T15:56:12.871Z,6.70
2023-01-22T15:59:14.327Z,6.20
2023-01-22T16:02:15.784Z,6.37
2023-01-22T16:05:17.383Z,6.03
2023-01-22T16:08:18.818Z,6.33
2023-01-22T16:11:21.166Z,6.53
2023-01-22T16:14:23.117Z,6.07
2023-01-22T16:17:24.625Z,5.90
2023-01-22T16:20:26.044Z,6.20
2023-01-22T16:23:27.445Z,5.97
2023-01-22T16:26:32.037Z,6.30
2023-01-22T16:29:33.565Z,6.30
2023-01-22T16:32:34.942Z,7.00
2023-01-22T16:35:36.347Z,6.13
2023-01-22T16:38:38.996Z,6.03
2023-01-22T16:41:40.383Z,6.50
2023-01-22T16:44:41.883Z,6.37
2023-01-22T16:47:43.421Z,7.73
2023-01-22T16:50:44.846Z,7.50
2023-01-22T16:53:47.595Z,5.80
2023-01-22T16:56:49.759Z,7.33
2023-01-22T16:59:51.262Z,6.67
2023-01-22T17:02:52.754Z,6.30
2023-01-22T17:05:54.143Z,7.13
2023-01-22T17:08:55.667Z,6.33
2023-01-22T17:12:02.748Z,7.40
2023-01-22T17:15:04.589Z,7.30
2023-01-22T17:18:06.211Z,7.77
2023-01-22T17:21:10.410Z,7.40
2023-01-22T17:24:13.181Z,7.13
2023-01-22T17:27:18.303Z,7.93
2023-01-22T17:30:20.176Z,8.10
2023-01-22T17:33:24.205Z,7.07
2023-01-22T17:36:28.175Z,6.60
2023-01-22T17:39:29.564Z,6.93
2023-01-22T17:42:31.098Z,7.30
2023-01-22T17:45:32.599Z,6.87
2023-01-22T17:48:35.594Z,7.10
2023-01-22T17:51:37.014Z,6.93
2023-01-22T17:54:38.766Z,8.00
2023-01-22T17:57:41.457Z,7.40
2023-01-22T18:00:43.482Z,7.37
2023-01-22T18:03:45.886Z,7.67
2023-01-22T18:06:47.345Z,6.93
2023-01-22T18:09:48.787Z,7.70
2023-01-22T18:12:53.981Z,7.33
2023-01-22T18:15:55.530Z,7.67
2023-01-22T18:18:58.928Z,7.73
2023-01-22T18:22:00.419Z,7.53
2023-01-22T18:25:01.886Z,7.17
2023-01-22T18:28:04.098Z,7.93
2023-01-22T18:31:08.319Z,10.07
2023-01-22T18:34:14.017Z,10.17
2023-01-22T18:37:15.454Z,8.17
2023-01-22T18:40:16.975Z,8.47
2023-01-22T18:43:18.974Z,7.83
2023-01-22T18:46:21.029Z,8.07
2023-01-22T18:49:23.237Z,7.70
2023-01-22T18:52:25.398Z,7.50
2023-01-22T18:55:26.797Z,7.67
2023-01-22T18:58:33.748Z,9.13
2023-01-22T19:01:38.054Z,8.70
2023-01-22T19:04:39.561Z,7.77
2023-01-22T19:07:41.033Z,8.60
2023-01-22T19:10:42.413Z,9.53
2023-01-22T19:13:48.257Z,7.23
2023-01-22T19:16:53.072Z,8.23
2023-01-22T19:19:54.606Z,8.03
2023-01-22T19:22:56.158Z,8.30
2023-01-22T19:26:08.053Z,8.33
2023-01-22T19:29:13.189Z,7.70
2023-01-22T19:32:16.420Z,7.73
2023-01-22T19:35:18.282Z,7.87
2023-01-22T19:38:19.795Z,7.80
2023-01-22T19:41:23.188Z,7.77
2023-01-22T19:44:24.743Z,9.47
2023-01-22T19:47:26.232Z,9.63
2023-01-22T19:50:27.642Z,7.83
2023-01-22T19:53:29.693Z,7.93
2023-01-22T19:56:36.306Z,8.50
2023-01-22T19:59:37.687Z,7.70
2023-01-22T20:02:40.344Z,7.67
2023-01-22T20:05:43.875Z,7.93
2023-01-22T20:08:45.970Z,8.40
2023-01-22T20:11:54.799Z,7.97
2023-01-22T20:14:56.327Z,8.67
2023-01-22T20:17:57.799Z,7.60
2023-01-22T20:21:01.416Z,8.10
2023-01-22T20:24:02.819Z,8.43
2023-01-22T20:27:04.230Z,8.00
2023-01-22T20:30:06.716Z,9.17
2023-01-22T20:33:11.045Z,8.70
2023-01-22T20:36:15.258Z,14.60
2023-01-22T20:39:16.878Z,9.63
2023-01-22T20:42:18.323Z,10.87
2023-01-22T20:45:20.185Z,14.17
2023-01-22T20:48:21.780Z,10.20
2023-01-22T20:51:26.948Z,13.87
2023-01-22T20:54:29.142Z,10.50
2023-01-22T20:57:30.928Z,10.80
2023-01-22T21:00:32.457Z,12.07
2023-01-22T21:03:34.815Z,11.37
2023-01-22T21:06:37.366Z,8.90
2023-01-22T21:09:40.877Z,8.97
2023-01-22T21:12:42.429Z,8.70
2023-01-22T21:15:43.890Z,8.23
2023-01-22T21:18:46.181Z,8.60
2023-01-22T21:21:47.751Z,8.43
2023-01-22T21:24:49.665Z,7.90
2023-01-22T21:27:51.276Z,8.23
2023-01-22T21:30:52.756Z,7.67
2023-01-22T21:34:02.442Z,8.37
2023-01-22T21:37:04.221Z,8.47
2023-01-22T21:40:08.485Z,8.67
2023-01-22T21:43:44.102Z,8.97
2023-01-22T21:46:46.934Z,8.83
2023-01-22T21:49:49.889Z,9.93
2023-01-22T21:52:54.560Z,8.77
2023-01-22T21:55:55.970Z,8.80
2023-01-22T21:58:57.410Z,8.50
2023-01-22T22:01:59.012Z,8.47
2023-01-22T22:05:00.891Z,8.17
2023-01-22T22:08:02.937Z,8.80
2023-01-22T22:11:05.158Z,9.37
2023-01-22T22:14:08.977Z,10.57
2023-01-22T22:17:11.376Z,9.17
2023-01-22T22:20:12.918Z,8.77
2023-01-22T22:23:14.350Z,8.90
2023-01-22T22:26:15.789Z,9.73
2023-01-22T22:29:17.268Z,10.70
2023-01-22T22:32:19.041Z,10.30
2023-01-22T22:35:21.655Z,10.40
2023-01-22T22:38:23.049Z,10.07
2023-01-22T22:41:27.230Z,9.70
2023-01-22T22:44:28.622Z,10.10
2023-01-22T22:47:30.061Z,8.93
2023-01-22T22:50:31.485Z,9.63
2023-01-22T22:53:32.862Z,9.23
2023-01-22T22:56:34.368Z,9.77
2023-01-22T22:59:36.171Z,12.73
2023-01-22T23:02:37.934Z,15.67
2023-01-22T23:05:39.808Z,10.73
2023-01-22T23:08:43.754Z,8.17
2023-01-22T23:11:46.351Z,8.83
2023-01-22T23:14:47.759Z,8.87
2023-01-22T23:17:49.190Z,8.93
2023-01-22T23:20:50.573Z,8.20
2023-01-22T23:23:53.312Z,8.23
2023-01-22T23:26:54.898Z,8.70
2023-01-22T23:29:56.319Z,7.53
2023-01-22T23:32:57.736Z,8.40
2023-01-22T23:36:03.874Z,7.93
2023-01-22T23:39:05.319Z,7.93
2023-01-22T23:42:06.784Z,8.40
2023-01-22T23:45:10.319Z,8.53
2023-01-22T23:48:13.067Z,8.67
2023-01-22T23:51:15.615Z,8.87
2023-01-22T23:54:17.548Z,8.57
2023-01-22T23:57:18.982Z,8.23
